Gwalior, Gwalior Airport (VIGR)

NameGwalior Airport
CityGwalior
CountryIndia
ICAOVIGR
IATAGWL
Altitude188 m
CoordinatesGoogle Map
Live Air TrafficLiveATC.net
METARVIGR 070345Z 32005KT 3500 BR FEW040 BKN100 25/21 Q1015 BECMG 4000M
2019-10-07 03:45:00 Wind: Northwest (320°) 2.57 m/s - Visibility: 4000 m - Weather: Mist - Temperature: 25 °C - Dew point: 21 °C - Humidity: 78.5% - Pressure: 1015 hPa

Sorry, no flights used the airport in this database.